sensor_id;sensor_type;location;lat;lon;timestamp;pressure;altitude;pressure_sealevel;temperature;humidity
51313;BME280;37397;53.226;10.400;2023-04-26T00:01:26;101019.38;;;8.00;55.51
51313;BME280;37397;53.226;10.400;2023-04-26T00:03:53;101017.78;;;7.99;55.33
51313;BME280;37397;53.226;10.400;2023-04-26T00:06:22;101014.94;;;7.99;55.50
51313;BME280;37397;53.226;10.400;2023-04-26T00:08:48;101027.22;;;7.96;55.54
51313;BME280;37397;53.226;10.400;2023-04-26T00:11:15;101026.09;;;7.94;55.49
51313;BME280;37397;53.226;10.400;2023-04-26T00:13:41;101018.34;;;7.94;55.54
51313;BME280;37397;53.226;10.400;2023-04-26T00:16:08;101010.41;;;7.89;55.60
51313;BME280;37397;53.226;10.400;2023-04-26T00:18:34;101012.81;;;7.91;55.53
51313;BME280;37397;53.226;10.400;2023-04-26T00:21:01;101007.22;;;7.87;55.48
51313;BME280;37397;53.226;10.400;2023-04-26T00:23:27;101005.97;;;7.88;55.61
51313;BME280;37397;53.226;10.400;2023-04-26T00:25:55;101011.34;;;7.86;55.61
51313;BME280;37397;53.226;10.400;2023-04-26T00:28:22;101010.97;;;7.84;55.64
51313;BME280;37397;53.226;10.400;2023-04-26T00:30:48;101014.28;;;7.82;55.62
51313;BME280;37397;53.226;10.400;2023-04-26T00:33:16;101025.31;;;7.80;55.47
51313;BME280;37397;53.226;10.400;2023-04-26T00:35:42;101022.91;;;7.79;55.58
51313;BME280;37397;53.226;10.400;2023-04-26T00:38:09;101029.88;;;7.78;55.64
51313;BME280;37397;53.226;10.400;2023-04-26T00:40:36;101018.50;;;7.78;55.56
51313;BME280;37397;53.226;10.400;2023-04-26T00:43:02;101027.13;;;7.74;55.54
51313;BME280;37397;53.226;10.400;2023-04-26T00:45:29;101026.34;;;7.74;55.84
51313;BME280;37397;53.226;10.400;2023-04-26T00:47:58;101038.50;;;7.74;55.53
51313;BME280;37397;53.226;10.400;2023-04-26T00:50:27;101041.78;;;7.73;55.57
51313;BME280;37397;53.226;10.400;2023-04-26T00:52:55;101024.09;;;7.69;55.65
51313;BME280;37397;53.226;10.400;2023-04-26T00:55:22;101030.56;;;7.69;55.91
51313;BME280;37397;53.226;10.400;2023-04-26T00:57:49;101028.97;;;7.68;55.66
51313;BME280;37397;53.226;10.400;2023-04-26T01:00:15;101033.50;;;7.65;55.69
51313;BME280;37397;53.226;10.400;2023-04-26T01:02:42;101035.91;;;7.67;55.85
51313;BME280;37397;53.226;10.400;2023-04-26T01:05:10;101034.75;;;7.64;55.89
51313;BME280;37397;53.226;10.400;2023-04-26T01:07:36;101031.59;;;7.62;55.97
51313;BME280;37397;53.226;10.400;2023-04-26T01:10:04;101030.78;;;7.62;55.90
51313;BME280;37397;53.226;10.400;2023-04-26T01:12:31;101038.16;;;7.59;55.87
51313;BME280;37397;53.226;10.400;2023-04-26T01:14:58;101038.16;;;7.59;56.00
51313;BME280;37397;53.226;10.400;2023-04-26T01:17:25;101040.69;;;7.57;56.07
51313;BME280;37397;53.226;10.400;2023-04-26T01:19:55;101035.78;;;7.58;56.19
51313;BME280;37397;53.226;10.400;2023-04-26T01:22:22;101037.84;;;7.57;55.94
51313;BME280;37397;53.226;10.400;2023-04-26T01:24:49;101040.69;;;7.57;56.00
51313;BME280;37397;53.226;10.400;2023-04-26T01:27:16;101043.19;;;7.55;56.04
51313;BME280;37397;53.226;10.400;2023-04-26T01:29:43;101059.41;;;7.55;55.98
51313;BME280;37397;53.226;10.400;2023-04-26T01:32:11;101050.88;;;7.55;56.19
51313;BME280;37397;53.226;10.400;2023-04-26T01:34:37;101050.56;;;7.53;56.11
51313;BME280;37397;53.226;10.400;2023-04-26T01:37:04;101043.72;;;7.50;56.12
51313;BME280;37397;53.226;10.400;2023-04-26T01:39:30;101044.88;;;7.53;56.11
51313;BME280;37397;53.226;10.400;2023-04-26T01:41:57;101043.28;;;7.52;56.11
51313;BME280;37397;53.226;10.400;2023-04-26T01:44:30;101048.63;;;7.49;56.34
51313;BME280;37397;53.226;10.400;2023-04-26T01:46:59;101041.47;;;7.45;56.38
51313;BME280;37397;53.226;10.400;2023-04-26T01:49:26;101047.47;;;7.47;56.29
51313;BME280;37397;53.226;10.400;2023-04-26T01:51:53;101042.72;;;7.44;56.30
51313;BME280;37397;53.226;10.400;2023-04-26T01:54:22;101051.59;;;7.46;56.43
51313;BME280;37397;53.226;10.400;2023-04-26T01:56:49;101042.72;;;7.44;56.26
51313;BME280;37397;53.226;10.400;2023-04-26T01:59:15;101042.72;;;7.44;56.45
51313;BME280;37397;53.226;10.400;2023-04-26T02:01:42;101048.41;;;7.44;56.36
51313;BME280;37397;53.226;10.400;2023-04-26T02:04:09;101054.53;;;7.42;56.17
51313;BME280;37397;53.226;10.400;2023-04-26T02:06:35;101059.06;;;7.40;56.36
51313;BME280;37397;53.226;10.400;2023-04-26T02:09:03;101053.06;;;7.38;56.28
51313;BME280;37397;53.226;10.400;2023-04-26T02:11:30;101059.97;;;7.37;56.55
51313;BME280;37397;53.226;10.400;2023-04-26T02:13:56;101045.78;;;7.37;56.16
51313;BME280;37397;53.226;10.400;2023-04-26T02:16:23;101030.09;;;7.32;56.22
51313;BME280;37397;53.226;10.400;2023-04-26T02:18:50;101039.06;;;7.30;56.22
51313;BME280;37397;53.226;10.400;2023-04-26T02:21:16;101049.97;;;7.32;56.45
51313;BME280;37397;53.226;10.400;2023-04-26T02:23:44;101050.88;;;7.29;56.32
51313;BME280;37397;53.226;10.400;2023-04-26T02:26:12;101054.09;;;7.31;56.41
51313;BME280;37397;53.226;10.400;2023-04-26T02:28:38;101046.03;;;7.29;56.63
51313;BME280;37397;53.226;10.400;2023-04-26T02:31:05;101042.81;;;7.27;56.44
51313;BME280;37397;53.226;10.400;2023-04-26T02:33:31;101050.09;;;7.28;56.54
51313;BME280;37397;53.226;10.400;2023-04-26T02:35:58;101049.75;;;7.26;56.64
51313;BME280;37397;53.226;10.400;2023-04-26T02:38:25;101052.25;;;7.24;56.57
51313;BME280;37397;53.226;10.400;2023-04-26T02:41:01;101043.72;;;7.24;56.65
51313;BME280;37397;53.226;10.400;2023-04-26T02:43:29;101050.66;;;7.23;56.68
51313;BME280;37397;53.226;10.400;2023-04-26T02:45:56;101055.06;;;7.24;56.92
51313;BME280;37397;53.226;10.400;2023-04-26T02:48:24;101055.53;;;7.23;56.64
51313;BME280;37397;53.226;10.400;2023-04-26T02:50:51;101064.41;;;7.25;56.94
51313;BME280;37397;53.226;10.400;2023-04-26T02:53:17;101056.69;;;7.25;56.97
51313;BME280;37397;53.226;10.400;2023-04-26T02:55:44;101055.06;;;7.24;57.14
51313;BME280;37397;53.226;10.400;2023-04-26T02:58:11;101053.06;;;7.25;56.76
51313;BME280;37397;53.226;10.400;2023-04-26T03:00:38;101047.50;;;7.21;56.97
51313;BME280;37397;53.226;10.400;2023-04-26T03:03:05;101057.25;;;7.20;56.71
51313;BME280;37397;53.226;10.400;2023-04-26T03:05:32;101053.16;;;7.21;56.99
51313;BME280;37397;53.226;10.400;2023-04-26T03:07:58;101054.75;;;7.22;56.58
51313;BME280;37397;53.226;10.400;2023-04-26T03:10:25;101059.63;;;7.22;56.87
51313;BME280;37397;53.226;10.400;2023-04-26T03:12:52;101060.88;;;7.21;56.66
51313;BME280;37397;53.226;10.400;2023-04-26T03:15:18;101055.66;;;7.19;56.86
51313;BME280;37397;53.226;10.400;2023-04-26T03:17:45;101060.19;;;7.17;56.68
51313;BME280;37397;53.226;10.400;2023-04-26T03:20:13;101065.75;;;7.20;56.81
51313;BME280;37397;53.226;10.400;2023-04-26T03:22:40;101067.91;;;7.16;56.93
51313;BME280;37397;53.226;10.400;2023-04-26T03:25:07;101060.66;;;7.15;56.96
51313;BME280;37397;53.226;10.400;2023-04-26T03:27:34;101062.59;;;7.18;57.14
51313;BME280;37397;53.226;10.400;2023-04-26T03:30:00;101064.59;;;7.18;56.94
51313;BME280;37397;53.226;10.400;2023-04-26T03:32:28;101060.97;;;7.17;57.11
51313;BME280;37397;53.226;10.400;2023-04-26T03:34:54;101066.66;;;7.17;57.31
51313;BME280;37397;53.226;10.400;2023-04-26T03:37:21;101065.97;;;7.13;56.75
51313;BME280;37397;53.226;10.400;2023-04-26T03:39:55;101065.50;;;7.15;56.98
51313;BME280;37397;53.226;10.400;2023-04-26T03:42:22;101066.31;;;7.15;57.16
51313;BME280;37397;53.226;10.400;2023-04-26T03:44:48;101067.56;;;7.14;57.22
51313;BME280;37397;53.226;10.400;2023-04-26T03:47:15;101073.56;;;7.16;56.96
51313;BME280;37397;53.226;10.400;2023-04-26T03:49:41;101063.94;;;7.14;57.35
51313;BME280;37397;53.226;10.400;2023-04-26T03:52:08;101063.13;;;7.13;57.10
51313;BME280;37397;53.226;10.400;2023-04-26T03:54:34;101067.56;;;7.14;57.08
51313;BME280;37397;53.226;10.400;2023-04-26T03:57:01;101063.50;;;7.15;57.06
51313;BME280;37397;53.226;10.400;2023-04-26T03:59:28;101068.00;;;7.12;57.20
51313;BME280;37397;53.226;10.400;2023-04-26T04:01:55;101067.13;;;7.16;56.91
51313;BME280;37397;53.226;10.400;2023-04-26T04:04:21;101070.41;;;7.14;57.15
51313;BME280;37397;53.226;10.400;2023-04-26T04:06:48;101063.56;;;7.11;57.14
51313;BME280;37397;53.226;10.400;2023-04-26T04:09:16;101074.47;;;7.13;57.33
51313;BME280;37397;53.226;10.400;2023-04-26T04:11:42;101064.84;;;7.10;57.15
51313;BME280;37397;53.226;10.400;2023-04-26T04:14:11;101068.81;;;7.13;57.32
51313;BME280;37397;53.226;10.400;2023-04-26T04:16:38;101064.06;;;7.10;57.45
51313;BME280;37397;53.226;10.400;2023-04-26T04:19:04;101073.69;;;7.12;57.24
51313;BME280;37397;53.226;10.400;2023-04-26T04:21:31;101072.47;;;7.14;57.25
51313;BME280;37397;53.226;10.400;2023-04-26T04:23:58;101068.81;;;7.13;57.33
51313;BME280;37397;53.226;10.400;2023-04-26T04:26:24;101068.81;;;7.13;57.33
51313;BME280;37397;53.226;10.400;2023-04-26T04:28:51;101072.91;;;7.12;57.58
51313;BME280;37397;53.226;10.400;2023-04-26T04:31:19;101064.06;;;7.10;57.44
51313;BME280;37397;53.226;10.400;2023-04-26T04:33:45;101058.38;;;7.10;57.27
51313;BME280;37397;53.226;10.400;2023-04-26T04:36:12;101066.41;;;7.11;57.52
51313;BME280;37397;53.226;10.400;2023-04-26T04:38:43;101074.94;;;7.11;57.39
51313;BME280;37397;53.226;10.400;2023-04-26T04:41:10;101079.81;;;7.11;57.39
51313;BME280;37397;53.226;10.400;2023-04-26T04:43:37;101075.41;;;7.10;57.30
51313;BME280;37397;53.226;10.400;2023-04-26T04:46:04;101076.19;;;7.10;57.38
51313;BME280;37397;53.226;10.400;2023-04-26T04:48:32;101075.41;;;7.10;57.43
51313;BME280;37397;53.226;10.400;2023-04-26T04:50:58;101081.09;;;7.10;57.72
51313;BME280;37397;53.226;10.400;2023-04-26T04:53:25;101085.16;;;7.09;57.62
51313;BME280;37397;53.226;10.400;2023-04-26T04:55:52;101074.59;;;7.09;57.51
51313;BME280;37397;53.226;10.400;2023-04-26T04:58:18;101077.88;;;7.08;57.60
51313;BME280;37397;53.226;10.400;2023-04-26T05:00:45;101082.78;;;7.07;57.44
51313;BME280;37397;53.226;10.400;2023-04-26T05:03:22;101077.88;;;7.08;57.35
51313;BME280;37397;53.226;10.400;2023-04-26T05:05:49;101081.97;;;7.07;57.76
51313;BME280;37397;53.226;10.400;2023-04-26T05:08:16;101084.81;;;7.07;57.50
51313;BME280;37397;53.226;10.400;2023-04-26T05:10:44;101087.66;;;7.07;57.64
51313;BME280;37397;53.226;10.400;2023-04-26T05:13:11;101089.22;;;7.08;57.77
51313;BME280;37397;53.226;10.400;2023-04-26T05:15:38;101090.50;;;7.07;57.66
51313;BME280;37397;53.226;10.400;2023-04-26T05:18:04;101089.22;;;7.08;57.61
51313;BME280;37397;53.226;10.400;2023-04-26T05:20:31;101088.44;;;7.07;57.64
51313;BME280;37397;53.226;10.400;2023-04-26T05:22:58;101081.16;;;7.06;57.74
51313;BME280;37397;53.226;10.400;2023-04-26T05:25:24;101093.66;;;7.09;57.71
51313;BME280;37397;53.226;10.400;2023-04-26T05:27:57;101097.75;;;7.08;57.72
51313;BME280;37397;53.226;10.400;2023-04-26T05:30:50;101107.53;;;7.07;57.80
51313;BME280;37397;53.226;10.400;2023-04-26T05:33:41;101104.69;;;7.07;57.98
51313;BME280;37397;53.226;10.400;2023-04-26T05:36:16;101100.56;;;7.08;58.04
51313;BME280;37397;53.226;10.400;2023-04-26T05:38:42;101107.06;;;7.08;58.10
51313;BME280;37397;53.226;10.400;2023-04-26T05:41:09;101105.34;;;7.11;58.00
51313;BME280;37397;53.226;10.400;2023-04-26T05:43:36;101109.34;;;7.14;58.01
51313;BME280;37397;53.226;10.400;2023-04-26T05:46:03;101105.69;;;7.13;58.19
51313;BME280;37397;53.226;10.400;2023-04-26T05:48:30;101107.63;;;7.16;58.03
51313;BME280;37397;53.226;10.400;2023-04-26T05:50:56;101110.47;;;7.16;58.30
51313;BME280;37397;53.226;10.400;2023-04-26T05:53:23;101106.41;;;7.17;58.38
51313;BME280;37397;53.226;10.400;2023-04-26T05:55:50;101108.34;;;7.20;58.43
51313;BME280;37397;53.226;10.400;2023-04-26T05:58:17;101100.59;;;7.21;58.59
51313;BME280;37397;53.226;10.400;2023-04-26T06:00:44;101109.81;;;7.25;58.34
51313;BME280;37397;53.226;10.400;2023-04-26T06:03:11;101108.09;;;7.27;58.22
51313;BME280;37397;53.226;10.400;2023-04-26T06:05:38;101104.03;;;7.28;58.40
51313;BME280;37397;53.226;10.400;2023-04-26T06:08:05;101111.19;;;7.33;58.41
51313;BME280;37397;53.226;10.400;2023-04-26T06:10:32;101102.34;;;7.31;58.08
51313;BME280;37397;53.226;10.400;2023-04-26T06:12:58;101106.63;;;7.36;58.36
51313;BME280;37397;53.226;10.400;2023-04-26T06:15:27;101101.78;;;7.36;58.35
51313;BME280;37397;53.226;10.400;2023-04-26T06:17:54;101107.00;;;7.38;58.17
51313;BME280;37397;53.226;10.400;2023-04-26T06:20:20;101109.41;;;7.39;58.43
51313;BME280;37397;53.226;10.400;2023-04-26T06:22:47;101110.06;;;7.43;58.25
51313;BME280;37397;53.226;10.400;2023-04-26T06:25:13;101114.16;;;7.42;58.44
51313;BME280;37397;53.226;10.400;2023-04-26T06:27:41;101120.97;;;7.45;58.43
51313;BME280;37397;53.226;10.400;2023-04-26T06:30:08;101119.72;;;7.46;58.52
51313;BME280;37397;53.226;10.400;2023-04-26T06:32:39;101118.94;;;7.45;58.34
51313;BME280;37397;53.226;10.400;2023-04-26T06:35:07;101104.75;;;7.45;58.26
51313;BME280;37397;53.226;10.400;2023-04-26T06:37:34;101118.00;;;7.48;58.42
51313;BME280;37397;53.226;10.400;2023-04-26T06:40:00;101102.69;;;7.46;58.33
51313;BME280;37397;53.226;10.400;2023-04-26T06:42:27;101108.25;;;7.49;58.44
51313;BME280;37397;53.226;10.400;2023-04-26T06:45:12;101109.94;;;7.47;58.26
51313;BME280;37397;53.226;10.400;2023-04-26T06:47:39;101116.66;;;7.53;58.27
51313;BME280;37397;53.226;10.400;2023-04-26T06:50:06;101116.66;;;7.53;58.63
51313;BME280;37397;53.226;10.400;2023-04-26T06:52:33;101125.88;;;7.57;58.33
51313;BME280;37397;53.226;10.400;2023-04-26T06:55:00;101126.66;;;7.58;58.40
51313;BME280;37397;53.226;10.400;2023-04-26T06:57:28;101114.84;;;7.59;58.34
51313;BME280;37397;53.226;10.400;2023-04-26T06:59:54;101118.47;;;7.60;58.59
51313;BME280;37397;53.226;10.400;2023-04-26T07:02:22;101132.59;;;7.63;58.59
51313;BME280;37397;53.226;10.400;2023-04-26T07:04:49;101119.97;;;7.64;58.53
51313;BME280;37397;53.226;10.400;2023-04-26T07:07:17;101122.34;;;7.66;58.51
51313;BME280;37397;53.226;10.400;2023-04-26T07:09:43;101113.03;;;7.65;58.39
51313;BME280;37397;53.226;10.400;2023-04-26T07:12:10;101125.09;;;7.70;58.54
51313;BME280;37397;53.226;10.400;2023-04-26T07:14:37;101131.13;;;7.72;58.47
51313;BME280;37397;53.226;10.400;2023-04-26T07:17:06;101127.00;;;7.73;58.29
51313;BME280;37397;53.226;10.400;2023-04-26T07:19:32;101127.38;;;7.75;58.50
51313;BME280;37397;53.226;10.400;2023-04-26T07:21:59;101138.28;;;7.76;58.42
51313;BME280;37397;53.226;10.400;2023-04-26T07:24:26;101124.75;;;7.80;58.31
51313;BME280;37397;53.226;10.400;2023-04-26T07:26:52;101140.44;;;7.85;58.38
51313;BME280;37397;53.226;10.400;2023-04-26T07:29:19;101131.91;;;7.85;58.47
51313;BME280;37397;53.226;10.400;2023-04-26T07:31:45;101137.00;;;7.90;58.54
51313;BME280;37397;53.226;10.400;2023-04-26T07:34:12;101137.38;;;7.92;58.40
51313;BME280;37397;53.226;10.400;2023-04-26T07:36:39;101134.41;;;7.96;58.25
51313;BME280;37397;53.226;10.400;2023-04-26T07:39:05;101132.81;;;7.95;58.43
51313;BME280;37397;53.226;10.400;2023-04-26T07:41:34;101139.19;;;7.99;58.12
51313;BME280;37397;53.226;10.400;2023-04-26T07:44:00;101138.28;;;8.02;58.19
51313;BME280;37397;53.226;10.400;2023-04-26T07:46:27;101143.06;;;8.05;58.14
51313;BME280;37397;53.226;10.400;2023-04-26T07:48:53;101131.69;;;8.05;58.20
51313;BME280;37397;53.226;10.400;2023-04-26T07:51:20;101140.41;;;8.11;58.18
51313;BME280;37397;53.226;10.400;2023-04-26T07:53:46;101132.22;;;8.13;58.04
51313;BME280;37397;53.226;10.400;2023-04-26T07:56:13;101137.00;;;8.16;58.05
51313;BME280;37397;53.226;10.400;2023-04-26T07:58:40;101132.91;;;8.17;58.11
51313;BME280;37397;53.226;10.400;2023-04-26T08:01:07;101128.00;;;8.17;57.86
51313;BME280;37397;53.226;10.400;2023-04-26T08:03:34;101144.03;;;8.24;57.97
51313;BME280;37397;53.226;10.400;2023-04-26T08:06:00;101141.09;;;8.28;57.68
51313;BME280;37397;53.226;10.400;2023-04-26T08:08:27;101149.63;;;8.28;57.71
51313;BME280;37397;53.226;10.400;2023-04-26T08:10:54;101133.66;;;8.30;57.42
51313;BME280;37397;53.226;10.400;2023-04-26T08:13:21;101133.09;;;8.35;57.29
51313;BME280;37397;53.226;10.400;2023-04-26T08:15:47;101143.53;;;8.38;57.26
51313;BME280;37397;53.226;10.400;2023-04-26T08:18:14;101140.25;;;8.40;57.01
51313;BME280;37397;53.226;10.400;2023-04-26T08:20:40;101145.88;;;8.44;57.19
51313;BME280;37397;53.226;10.400;2023-04-26T08:23:07;101141.75;;;8.45;56.98
51313;BME280;37397;53.226;10.400;2023-04-26T08:25:34;101145.72;;;8.47;56.97
51313;BME280;37397;53.226;10.400;2023-04-26T08:28:00;101162.66;;;8.51;56.83
51313;BME280;37397;53.226;10.400;2023-04-26T08:30:27;101152.91;;;8.52;56.44
51313;BME280;37397;53.226;10.400;2023-04-26T08:32:54;101154.81;;;8.55;56.26
51313;BME280;37397;53.226;10.400;2023-04-26T08:35:21;101149.47;;;8.57;56.12
51313;BME280;37397;53.226;10.400;2023-04-26T08:37:48;101151.84;;;8.58;55.78
51313;BME280;37397;53.226;10.400;2023-04-26T08:40:21;101151.38;;;8.60;55.49
51313;BME280;37397;53.226;10.400;2023-04-26T08:42:49;101153.31;;;8.63;55.70
51313;BME280;37397;53.226;10.400;2023-04-26T08:45:15;101147.63;;;8.63;55.70
51313;BME280;37397;53.226;10.400;2023-04-26T08:48:03;101154.44;;;8.66;55.60
51313;BME280;37397;53.226;10.400;2023-04-26T08:50:32;101166.16;;;8.68;55.40
51313;BME280;37397;53.226;10.400;2023-04-26T08:52:59;101166.94;;;8.68;55.05
51313;BME280;37397;53.226;10.400;2023-04-26T08:55:26;101171.72;;;8.71;54.61
51313;BME280;37397;53.226;10.400;2023-04-26T08:57:53;101150.22;;;8.70;54.40
51313;BME280;37397;53.226;10.400;2023-04-26T09:00:21;101158.16;;;8.75;54.25
51313;BME280;37397;53.226;10.400;2023-04-26T09:02:49;101163.38;;;8.77;54.19
51313;BME280;37397;53.226;10.400;2023-04-26T09:05:21;101161.69;;;8.80;54.33
51313;BME280;37397;53.226;10.400;2023-04-26T09:08:01;101171.47;;;8.79;54.06
51313;BME280;37397;53.226;10.400;2023-04-26T09:10:30;101156.31;;;8.82;54.00
51313;BME280;37397;53.226;10.400;2023-04-26T09:12:57;101155.41;;;8.85;54.16
51313;BME280;37397;53.226;10.400;2023-04-26T09:15:25;101158.09;;;8.88;53.93
51313;BME280;37397;53.226;10.400;2023-04-26T09:17:52;101156.84;;;8.89;53.77
51313;BME280;37397;53.226;10.400;2023-04-26T09:20:29;101159.56;;;8.93;53.59
51313;BME280;37397;53.226;10.400;2023-04-26T09:23:06;101164.00;;;8.94;53.77
51313;BME280;37397;53.226;10.400;2023-04-26T09:25:34;101160.25;;;8.97;53.86
51313;BME280;37397;53.226;10.400;2023-04-26T09:28:02;101165.03;;;9.00;54.26
51313;BME280;37397;53.226;10.400;2023-04-26T09:30:30;101159.66;;;9.02;54.18
51313;BME280;37397;53.226;10.400;2023-04-26T09:33:03;101155.88;;;9.05;54.24
51313;BME280;37397;53.226;10.400;2023-04-26T09:35:36;101156.53;;;9.09;53.92
51313;BME280;37397;53.226;10.400;2023-04-26T09:38:16;101177.28;;;9.10;53.80
51313;BME280;37397;53.226;10.400;2023-04-26T09:40:44;101160.84;;;9.14;53.76
51313;BME280;37397;53.226;10.400;2023-04-26T09:43:16;101164.81;;;9.17;53.72
51313;BME280;37397;53.226;10.400;2023-04-26T09:45:50;101168.00;;;9.19;53.44
51313;BME280;37397;53.226;10.400;2023-04-26T09:50:49;101165.81;;;9.23;53.81
51313;BME280;37397;53.226;10.400;2023-04-26T09:56:12;101172.50;;;9.29;54.14
51313;BME280;37397;53.226;10.400;2023-04-26T10:01:24;101208.72;;;9.28;54.12
51313;BME280;37397;53.226;10.400;2023-04-26T10:03:51;101190.84;;;9.28;54.25
51313;BME280;37397;53.226;10.400;2023-04-26T10:06:18;101198.00;;;9.33;54.21
51313;BME280;37397;53.226;10.400;2023-04-26T10:08:45;101195.63;;;9.31;54.37
51313;BME280;37397;53.226;10.400;2023-04-26T10:11:11;101201.19;;;9.35;54.35
51313;BME280;37397;53.226;10.400;2023-04-26T10:13:40;101196.25;;;9.35;54.21
51313;BME280;37397;53.226;10.400;2023-04-26T10:16:08;101195.03;;;9.36;54.15
51313;BME280;37397;53.226;10.400;2023-04-26T10:18:36;101199.47;;;9.37;54.14
51313;BME280;37397;53.226;10.400;2023-04-26T10:21:09;101197.88;;;9.36;54.18
51313;BME280;37397;53.226;10.400;2023-04-26T10:23:37;101195.03;;;9.36;54.17
51313;BME280;37397;53.226;10.400;2023-04-26T10:26:04;101192.84;;;9.40;54.00
51313;BME280;37397;53.226;10.400;2023-04-26T10:31:10;101185.09;;;9.41;53.54
51313;BME280;37397;53.226;10.400;2023-04-26T10:33:37;101178.13;;;9.42;53.64
51313;BME280;37397;53.226;10.400;2023-04-26T10:36:06;101181.31;;;9.44;53.72
51313;BME280;37397;53.226;10.400;2023-04-26T10:41:39;101177.66;;;9.43;53.25
51313;BME280;37397;53.226;10.400;2023-04-26T10:46:57;101181.94;;;9.48;53.50
51313;BME280;37397;53.226;10.400;2023-04-26T10:49:24;101186.41;;;9.49;53.71
51313;BME280;37397;53.226;10.400;2023-04-26T10:52:08;101166.91;;;9.47;53.33
51313;BME280;37397;53.226;10.400;2023-04-26T10:54:54;101184.34;;;9.49;53.02
51313;BME280;37397;53.226;10.400;2023-04-26T10:57:22;101173.63;;;9.54;53.52
51313;BME280;37397;53.226;10.400;2023-04-26T11:02:52;101183.16;;;9.60;53.87
51313;BME280;37397;53.226;10.400;2023-04-26T11:08:13;101194.25;;;9.67;53.77
51313;BME280;37397;53.226;10.400;2023-04-26T11:10:41;101181.59;;;9.68;54.18
51313;BME280;37397;53.226;10.400;2023-04-26T11:13:07;101194.00;;;9.74;53.97
51313;BME280;37397;53.226;10.400;2023-04-26T11:15:34;101195.91;;;9.77;53.71
51313;BME280;37397;53.226;10.400;2023-04-26T11:18:02;101196.88;;;9.83;53.74
51313;BME280;37397;53.226;10.400;2023-04-26T11:20:33;101193.09;;;9.86;53.56
51313;BME280;37397;53.226;10.400;2023-04-26T11:23:00;101181.22;;;9.88;53.97
51313;BME280;37397;53.226;10.400;2023-04-26T11:25:28;101202.63;;;9.93;53.57
51313;BME280;37397;53.226;10.400;2023-04-26T11:27:59;101187.44;;;9.96;53.14
51313;BME280;37397;53.226;10.400;2023-04-26T11:30:32;101179.22;;;9.98;53.07
51313;BME280;37397;53.226;10.400;2023-04-26T11:32:59;101185.56;;;10.02;52.76
51313;BME280;37397;53.226;10.400;2023-04-26T11:35:27;101180.50;;;10.06;52.56
51313;BME280;37397;53.226;10.400;2023-04-26T11:37:58;101195.44;;;10.10;52.62
51313;BME280;37397;53.226;10.400;2023-04-26T11:40:29;101194.50;;;10.13;52.74
51313;BME280;37397;53.226;10.400;2023-04-26T11:43:00;101194.16;;;10.11;52.39
51313;BME280;37397;53.226;10.400;2023-04-26T11:45:27;101199.88;;;10.11;52.72
51313;BME280;37397;53.226;10.400;2023-04-26T11:47:54;101195.75;;;10.12;52.84
51313;BME280;37397;53.226;10.400;2023-04-26T11:50:21;101198.28;;;10.10;52.79
51313;BME280;37397;53.226;10.400;2023-04-26T11:52:55;101211.28;;;10.11;52.87
51313;BME280;37397;53.226;10.400;2023-04-26T11:55:23;101200.00;;;10.08;53.01
51313;BME280;37397;53.226;10.400;2023-04-26T11:57:53;101218.56;;;10.12;53.00
51313;BME280;37397;53.226;10.400;2023-04-26T12:00:20;101242.19;;;10.13;52.98
51313;BME280;37397;53.226;10.400;2023-04-26T12:02:46;101236.47;;;10.13;53.40
51313;BME280;37397;53.226;10.400;2023-04-26T12:05:26;101245.50;;;10.11;54.15
51313;BME280;37397;53.226;10.400;2023-04-26T12:07:58;101240.59;;;10.12;54.34
51313;BME280;37397;53.226;10.400;2023-04-26T12:10:35;101227.56;;;10.11;54.71
51313;BME280;37397;53.226;10.400;2023-04-26T12:13:04;101218.25;;;10.10;54.64
51313;BME280;37397;53.226;10.400;2023-04-26T12:15:31;101215.38;;;10.10;54.69
51313;BME280;37397;53.226;10.400;2023-04-26T12:18:05;101220.16;;;10.13;54.89
51313;BME280;37397;53.226;10.400;2023-04-26T12:20:38;101220.16;;;10.13;55.03
51313;BME280;37397;53.226;10.400;2023-04-26T12:23:07;101217.63;;;10.15;55.69
51313;BME280;37397;53.226;10.400;2023-04-26T12:25:37;101209.06;;;10.15;56.19
51313;BME280;37397;53.226;10.400;2023-04-26T12:28:06;101213.84;;;10.18;56.37
51313;BME280;37397;53.226;10.400;2023-04-26T12:30:38;101212.91;;;10.21;56.57
51313;BME280;37397;53.226;10.400;2023-04-26T12:33:05;101213.22;;;10.23;56.63
51313;BME280;37397;53.226;10.400;2023-04-26T12:35:43;101204.34;;;10.21;56.59
51313;BME280;37397;53.226;10.400;2023-04-26T12:38:09;101216.41;;;10.26;56.52
51313;BME280;37397;53.226;10.400;2023-04-26T12:40:37;101219.09;;;10.29;56.70
51313;BME280;37397;53.226;10.400;2023-04-26T12:43:04;101213.72;;;10.31;56.56
51313;BME280;37397;53.226;10.400;2023-04-26T12:45:30;101228.31;;;10.33;56.51
51313;BME280;37397;53.226;10.400;2023-04-26T12:47:57;101227.53;;;10.33;56.41
51313;BME280;37397;53.226;10.400;2023-04-26T12:50:26;101235.94;;;10.36;56.47
51313;BME280;37397;53.226;10.400;2023-04-26T12:52:53;101241.34;;;10.34;56.31
51313;BME280;37397;53.226;10.400;2023-04-26T12:55:19;101247.38;;;10.36;56.32
51313;BME280;37397;53.226;10.400;2023-04-26T12:57:46;101240.09;;;10.35;56.36
51313;BME280;37397;53.226;10.400;2023-04-26T13:00:14;101230.59;;;10.38;56.52
51313;BME280;37397;53.226;10.400;2023-04-26T13:02:42;101242.78;;;10.39;56.56
51313;BME280;37397;53.226;10.400;2023-04-26T13:05:09;101241.53;;;10.40;56.43
51313;BME280;37397;53.226;10.400;2023-04-26T13:07:38;101243.09;;;10.41;56.50
51313;BME280;37397;53.226;10.400;2023-04-26T13:10:06;101239.47;;;10.40;56.86
51313;BME280;37397;53.226;10.400;2023-04-26T13:12:33;101241.84;;;10.42;56.75
51313;BME280;37397;53.226;10.400;2023-04-26T13:14:59;101246.63;;;10.45;56.79